Terminal Aerodrome Forecast
Issued by NWS Melbourne, FL

Home | Current Version | Previous Version | Text Only | Print | Product List | Glossary On
Versions: 1 2 3 4 5 6 7 8 9 10 11
815
FTUS42 KMLB 230828 AAB
TAFMLB
TAF AMD
KMLB 230828Z 2308/2406 18004KT P6SM SCT027 BKN070 OVC250
     FM231500 13012KT P6SM VCSH SCT025 BKN050
     FM240000 12007KT P6SM SCT035 BKN200=

USA.gov is the U.S. government's official web portal to all federal, state and local government web resources and services.